Time;durP1;ratioP1;P1;durP2;ratioP2;P2;SDS_P1;SDS_P2;PMS_P1;PMS_P2;Temp;Humidity;BMP_temperature;BMP_pressure;BME280_temperature;BME280_humidity;BME280_pressure;Samples;Min_cycle;Max_cycle;Signal;HPM_P1;HPM_P2
2020/12/05 00:00:40;;;;;;;10.93;9.10;;;5.50;99.90;;;;;;2121848;27;20023;-79
2020/12/05 00:01:41;;;;;;;11.80;9.70;;;5.50;99.90;;;;;;2112172;28;20020;-80
2020/12/05 00:02:41;;;;;;;10.15;8.93;;;5.50;99.90;;;;;;2104371;28;20444;-77
2020/12/05 00:03:42;;;;;;;11.10;9.07;;;5.50;99.90;;;;;;2112010;28;20113;-76
2020/12/05 00:04:43;;;;;;;14.15;9.32;;;5.50;99.90;;;;;;2121643;27;20023;-77
2020/12/05 00:05:43;;;;;;;11.32;9.00;;;5.50;99.90;;;;;;2112360;28;20058;-76
2020/12/05 00:06:44;;;;;;;12.32;9.73;;;5.60;99.90;;;;;;2104495;28;20495;-79
2020/12/05 00:07:44;;;;;;;13.30;9.20;;;5.60;99.90;;;;;;2112291;28;20483;-79
2020/12/05 00:08:45;;;;;;;10.45;9.18;;;5.60;99.90;;;;;;2121843;27;20094;-77
2020/12/05 00:09:46;;;;;;;9.70;8.63;;;5.60;99.90;;;;;;2121473;27;20099;-79
2020/12/05 00:10:46;;;;;;;10.23;8.65;;;5.60;99.90;;;;;;2121926;27;20022;-78
2020/12/05 00:11:47;;;;;;;9.65;8.73;;;5.60;99.90;;;;;;2111964;28;20019;-77
2020/12/05 00:12:47;;;;;;;10.38;8.73;;;5.60;99.90;;;;;;2104024;28;20089;-79
2020/12/05 00:13:48;;;;;;;11.95;9.63;;;5.60;99.90;;;;;;2112490;28;20293;-76
2020/12/05 00:14:48;;;;;;;12.63;9.48;;;5.70;99.90;;;;;;2121769;27;20062;-77
2020/12/05 00:15:49;;;;;;;11.57;9.48;;;5.70;99.90;;;;;;2121316;27;20102;-79
2020/12/05 00:16:51;;;;;;;10.88;9.45;;;5.70;99.90;;;;;;2122187;27;20546;-78
2020/12/05 00:17:51;;;;;;;9.93;8.93;;;5.70;99.90;;;;;;2121268;27;20054;-80
2020/12/05 00:18:54;;;;;;;12.18;9.02;;;5.70;99.90;;;;;;2121839;27;20494;-79
2020/12/05 00:19:54;;;;;;;9.23;8.30;;;5.70;99.90;;;;;;2121421;27;20427;-77
2020/12/05 00:20:55;;;;;;;12.15;9.15;;;5.70;99.90;;;;;;2121436;27;20023;-80
2020/12/05 00:21:58;;;;;;;9.73;8.73;;;5.70;99.90;;;;;;2111935;28;20171;-80
2020/12/05 00:22:59;;;;;;;10.15;8.25;;;5.70;99.90;;;;;;2112907;28;20024;-80
2020/12/05 00:23:59;;;;;;;9.38;8.30;;;5.80;99.90;;;;;;2121378;27;20027;-77
2020/12/05 00:25:00;;;;;;;9.80;8.52;;;5.80;99.90;;;;;;2112544;28;20023;-76
2020/12/05 00:26:00;;;;;;;9.68;8.55;;;5.70;99.90;;;;;;2112505;28;20479;-78
2020/12/05 00:27:01;;;;;;;13.75;9.15;;;5.80;99.90;;;;;;2121431;27;20129;-78
2020/12/05 00:28:01;;;;;;;11.30;9.00;;;5.80;99.90;;;;;;2121334;27;20111;-76
2020/12/05 00:29:02;;;;;;;11.05;8.43;;;5.80;99.90;;;;;;2121479;27;20054;-76
2020/12/05 00:30:03;;;;;;;9.10;8.25;;;5.80;99.90;;;;;;2121883;27;20021;-79
2020/12/05 00:31:03;;;;;;;9.05;8.15;;;5.80;99.90;;;;;;2121466;27;20031;-77
2020/12/05 00:32:06;;;;;;;8.88;7.97;;;5.80;99.90;;;;;;2121364;27;20030;-78
2020/12/05 00:33:07;;;;;;;8.98;8.05;;;5.80;99.90;;;;;;2121483;27;20016;-80
2020/12/05 00:34:07;;;;;;;9.82;8.82;;;5.90;99.90;;;;;;2112242;28;20019;-79
2020/12/05 00:35:08;;;;;;;8.88;7.97;;;5.90;99.90;;;;;;2112413;28;20051;-79
2020/12/05 00:36:10;;;;;;;14.75;9.25;;;5.90;99.90;;;;;;2121472;27;20035;-79
2020/12/05 00:37:11;;;;;;;9.20;8.23;;;5.90;99.90;;;;;;2121484;27;20379;-78
2020/12/05 00:38:11;;;;;;;9.27;8.15;;;5.90;99.90;;;;;;2121316;27;20045;-79
2020/12/05 00:39:12;;;;;;;9.52;8.52;;;5.90;99.90;;;;;;2121083;27;20100;-78
2020/12/05 00:40:12;;;;;;;9.82;8.20;;;5.80;99.90;;;;;;2121510;27;20030;-78
2020/12/05 00:41:17;;;;;;;10.95;8.52;;;5.90;99.90;;;;;;2112222;28;20039;-79
2020/12/05 00:42:18;;;;;;;10.30;8.57;;;5.90;99.90;;;;;;2096081;28;20048;-80
2020/12/05 00:43:18;;;;;;;17.25;12.75;;;5.80;99.90;;;;;;2104093;28;20032;-77
2020/12/05 00:44:19;;;;;;;10.65;8.35;;;5.90;99.90;;;;;;2121219;27;20062;-79
2020/12/05 00:45:19;;;;;;;9.27;8.38;;;5.90;99.90;;;;;;2121156;27;20500;-78
2020/12/05 00:46:20;;;;;;;9.13;8.23;;;5.90;99.90;;;;;;2121470;27;20360;-80
2020/12/05 00:47:20;;;;;;;12.82;8.70;;;5.90;99.90;;;;;;2121443;28;20050;-78
2020/12/05 00:48:21;;;;;;;10.00;8.40;;;5.90;99.90;;;;;;2121621;28;20019;-79
2020/12/05 00:49:21;;;;;;;9.77;8.18;;;5.90;99.90;;;;;;2121283;28;20023;-80
2020/12/05 00:50:22;;;;;;;10.35;9.05;;;5.90;99.90;;;;;;2121440;28;20123;-80
2020/12/05 00:51:23;;;;;;;9.32;7.90;;;5.90;99.90;;;;;;2111680;28;20103;-78
2020/12/05 00:52:24;;;;;;;9.77;8.38;;;5.90;99.90;;;;;;2112444;28;20024;-77
2020/12/05 00:53:25;;;;;;;8.98;7.40;;;5.90;99.90;;;;;;2121370;28;20020;-77
2020/12/05 00:54:25;;;;;;;10.23;8.18;;;5.90;99.90;;;;;;2121614;28;20405;-79
2020/12/05 00:55:26;;;;;;;8.98;8.02;;;5.90;99.90;;;;;;2121698;28;20015;-79
2020/12/05 00:56:27;;;;;;;9.93;8.77;;;5.90;99.90;;;;;;2121378;28;20471;-79
2020/12/05 00:57:28;;;;;;;9.23;8.10;;;5.90;99.90;;;;;;2121166;28;20023;-79
2020/12/05 00:58:34;;;;;;;23.02;17.23;;;6.00;99.90;;;;;;2121793;28;20102;-78
2020/12/05 00:59:34;;;;;;;32.75;24.45;;;5.90;99.90;;;;;;2121225;28;20023;-77
2020/12/05 01:00:35;;;;;;;41.00;29.17;;;5.90;99.90;;;;;;2121606;28;20488;-78
2020/12/05 01:01:36;;;;;;;38.47;28.73;;;6.00;99.90;;;;;;2120700;28;20027;-79
2020/12/05 01:02:36;;;;;;;31.83;23.58;;;5.90;99.90;;;;;;2112032;28;20475;-77
2020/12/05 01:03:37;;;;;;;25.35;19.33;;;5.90;99.90;;;;;;2112480;28;20081;-78
2020/12/05 01:04:37;;;;;;;17.90;14.23;;;5.90;99.90;;;;;;2112300;28;20113;-80
2020/12/05 01:05:38;;;;;;;15.80;12.65;;;5.90;99.90;;;;;;2112452;28;20077;-79
2020/12/05 01:06:38;;;;;;;18.65;14.48;;;5.90;99.90;;;;;;2121642;28;20478;-79
2020/12/05 01:07:39;;;;;;;25.73;20.25;;;5.90;99.90;;;;;;2121149;28;20027;-77
2020/12/05 01:08:44;;;;;;;24.85;20.27;;;5.90;99.90;;;;;;2121709;28;20588;-77
2020/12/05 01:09:44;;;;;;;20.42;15.52;;;5.90;99.90;;;;;;2121122;28;20072;-76
2020/12/05 01:10:45;;;;;;;17.75;13.90;;;5.90;99.90;;;;;;2121541;28;20077;-79
2020/12/05 01:11:46;;;;;;;15.35;12.95;;;5.90;99.90;;;;;;2120978;28;20530;-78
2020/12/05 01:12:47;;;;;;;11.68;9.88;;;6.00;99.90;;;;;;2112285;28;20663;-77
2020/12/05 01:13:48;;;;;;;11.50;9.93;;;6.00;99.90;;;;;;2112337;28;20030;-76
2020/12/05 01:14:49;;;;;;;12.15;9.98;;;6.00;99.90;;;;;;2121279;28;20490;-79
2020/12/05 01:15:49;;;;;;;10.32;9.25;;;6.00;99.90;;;;;;2121548;28;20051;-78
2020/12/05 01:16:50;;;;;;;11.52;9.27;;;6.00;99.90;;;;;;2121257;28;20071;-77
2020/12/05 01:17:50;;;;;;;10.05;9.02;;;6.00;99.90;;;;;;2121183;28;20055;-77
2020/12/05 01:18:51;;;;;;;11.95;9.60;;;6.00;99.90;;;;;;2121362;28;20023;-79
2020/12/05 01:19:52;;;;;;;11.98;9.90;;;6.00;99.90;;;;;;2111850;28;20016;-80
2020/12/05 01:20:53;;;;;;;12.13;10.00;;;6.00;99.90;;;;;;2103975;28;20031;-77
2020/12/05 01:21:53;;;;;;;12.18;10.18;;;6.00;99.90;;;;;;2103476;28;20024;-79
2020/12/05 01:22:54;;;;;;;13.35;10.00;;;6.00;99.90;;;;;;2103576;28;20044;-78
2020/12/05 01:23:55;;;;;;;11.30;10.13;;;6.00;99.90;;;;;;2104010;28;20530;-80
2020/12/05 01:24:55;;;;;;;12.65;9.73;;;6.00;99.90;;;;;;2112144;28;20020;-76
2020/12/05 01:25:56;;;;;;;10.98;9.52;;;6.00;99.90;;;;;;2112049;28;20031;-78
2020/12/05 01:26:57;;;;;;;10.68;9.07;;;6.00;99.90;;;;;;2103771;28;20088;-77
2020/12/05 01:27:57;;;;;;;12.60;9.55;;;6.00;99.90;;;;;;2095294;28;20021;-77
2020/12/05 01:28:58;;;;;;;12.23;9.75;;;6.00;99.90;;;;;;2112267;28;20046;-78
2020/12/05 01:29:58;;;;;;;11.98;9.60;;;6.00;99.90;;;;;;2121185;28;20099;-77
2020/12/05 01:30:59;;;;;;;12.05;9.70;;;6.00;99.90;;;;;;2121037;28;20033;-77
2020/12/05 01:32:00;;;;;;;14.45;9.85;;;6.00;99.90;;;;;;2120965;28;20019;-79
2020/12/05 01:33:00;;;;;;;14.45;10.80;;;6.00;99.90;;;;;;2112139;28;20516;-77
2020/12/05 01:34:02;;;;;;;10.90;9.13;;;6.00;99.90;;;;;;2112385;28;20521;-76
2020/12/05 01:35:04;;;;;;;12.20;9.43;;;6.00;99.90;;;;;;2121210;28;20079;-76
2020/12/05 01:36:05;;;;;;;9.70;8.35;;;6.00;99.90;;;;;;2112109;28;20653;-77
2020/12/05 01:37:06;;;;;;;10.57;9.32;;;6.00;99.90;;;;;;2111919;28;20605;-78
2020/12/05 01:38:06;;;;;;;12.88;9.55;;;6.00;99.90;;;;;;2112136;28;20031;-77
2020/12/05 01:39:07;;;;;;;13.00;9.98;;;6.00;99.90;;;;;;2112127;28;20039;-78
2020/12/05 01:40:08;;;;;;;11.35;9.48;;;6.00;99.90;;;;;;2111931;28;20031;-79
2020/12/05 01:41:09;;;;;;;11.05;8.98;;;6.10;99.90;;;;;;2112294;28;20024;-80
2020/12/05 01:42:09;;;;;;;12.10;9.48;;;6.00;99.90;;;;;;2120887;28;20019;-77
2020/12/05 01:43:10;;;;;;;12.30;8.88;;;6.00;99.90;;;;;;2121100;28;20096;-76
2020/12/05 01:44:10;;;;;;;9.95;8.73;;;6.00;99.90;;;;;;2112100;28;20055;-78
2020/12/05 01:45:11;;;;;;;9.93;8.38;;;6.10;99.90;;;;;;2112072;28;20031;-80
2020/12/05 01:46:32;;;;;;;9.30;8.30;;;6.10;99.90;;;;;;2121331;28;20027;-76
2020/12/05 01:47:32;;;;;;;10.40;8.27;;;6.10;99.90;;;;;;2122071;27;20030;-78
2020/12/05 01:48:34;;;;;;;10.27;8.82;;;6.10;99.90;;;;;;2122676;27;20046;-79
2020/12/05 01:49:34;;;;;;;11.80;8.05;;;6.10;99.90;;;;;;2122977;27;20043;-79
2020/12/05 01:50:35;;;;;;;9.02;8.13;;;6.10;99.90;;;;;;2122822;27;20023;-77
2020/12/05 01:51:36;;;;;;;9.48;8.55;;;6.10;99.90;;;;;;2122356;27;20504;-80
2020/12/05 01:52:37;;;;;;;10.40;8.73;;;6.10;99.90;;;;;;2122689;27;20054;-80
2020/12/05 01:53:38;;;;;;;8.93;8.13;;;6.10;99.90;;;;;;2122865;27;20414;-79
2020/12/05 01:54:38;;;;;;;10.38;8.50;;;6.10;99.90;;;;;;2122752;27;20025;-79
2020/12/05 01:55:43;;;;;;;9.93;8.05;;;6.10;99.90;;;;;;2122755;27;20027;-77
2020/12/05 01:56:44;;;;;;;10.13;8.77;;;6.10;99.90;;;;;;2122893;27;20101;-79
2020/12/05 01:57:45;;;;;;;11.43;9.50;;;6.20;99.90;;;;;;2113218;28;20062;-78
2020/12/05 01:58:46;;;;;;;9.65;8.63;;;6.20;99.90;;;;;;2113710;28;20027;-77
2020/12/05 01:59:49;;;;;;;10.38;8.95;;;6.10;99.90;;;;;;2122552;27;20034;-77
2020/12/05 02:00:50;;;;;;;11.35;9.10;;;6.20;99.90;;;;;;2113502;28;20024;-79
2020/12/05 02:01:55;;;;;;;9.82;8.82;;;6.10;99.90;;;;;;2113715;27;20019;-79
2020/12/05 02:02:55;;;;;;;10.43;9.43;;;6.10;99.90;;;;;;2120529;27;20053;-79
2020/12/05 02:04:01;;;;;;;10.18;9.18;;;6.20;99.90;;;;;;2121605;27;20019;-79
2020/12/05 02:05:07;;;;;;;12.05;9.35;;;6.20;99.90;;;;;;2122975;27;20017;-79
2020/12/05 02:06:23;;;;;;;11.50;9.93;;;6.20;99.90;;;;;;2122682;27;20266;-79
2020/12/05 02:07:34;;;;;;;12.23;9.13;;;6.20;99.90;;;;;;2122962;27;20023;-77
2020/12/05 02:08:48;;;;;;;12.75;10.68;;;6.10;99.90;;;;;;2122744;27;20073;-78
2020/12/05 02:09:54;;;;;;;13.65;10.57;;;6.10;99.90;;;;;;2113651;28;20024;-78
2020/12/05 02:10:55;;;;;;;13.18;10.70;;;6.20;99.90;;;;;;2114271;27;20099;-76
2020/12/05 02:12:02;;;;;;;11.88;9.98;;;6.20;99.90;;;;;;2112788;28;20028;-79
2020/12/05 02:13:36;;;;;;;14.25;9.85;;;6.10;99.90;;;;;;2106172;28;20029;-76
2020/12/05 02:14:38;;;;;;;11.18;9.98;;;6.20;99.90;;;;;;2119136;27;20019;-78
2020/12/05 02:15:40;;;;;;;10.35;8.88;;;6.20;99.90;;;;;;2122672;27;20098;-78
2020/12/05 02:16:41;;;;;;;10.90;9.75;;;6.20;99.90;;;;;;2122506;27;20049;-79
2020/12/05 02:17:59;;;;;;;13.75;9.77;;;6.20;99.90;;;;;;2122472;27;20145;-77
2020/12/05 02:19:02;;;;;;;10.90;9.05;;;6.20;99.90;;;;;;2122543;27;20019;-77
2020/12/05 02:20:05;;;;;;;10.93;9.63;;;6.20;99.90;;;;;;2122577;27;20047;-79
2020/12/05 02:21:09;;;;;;;10.68;9.52;;;6.30;99.90;;;;;;2122314;27;20470;-77
2020/12/05 02:22:13;;;;;;;11.13;9.95;;;6.30;99.90;;;;;;2122070;27;20047;-76
2020/12/05 02:23:18;;;;;;;11.38;9.07;;;6.30;99.90;;;;;;2122750;27;20494;-79
2020/12/05 02:24:18;;;;;;;11.50;9.32;;;6.30;99.90;;;;;;2122330;27;20015;-79
2020/12/05 02:25:20;;;;;;;9.52;8.63;;;6.30;99.90;;;;;;2122809;27;20431;-79
2020/12/05 02:26:21;;;;;;;12.43;9.13;;;6.30;99.90;;;;;;2122406;27;20019;-78
2020/12/05 02:27:24;;;;;;;9.48;8.45;;;6.40;99.90;;;;;;2122607;27;20497;-77
2020/12/05 02:28:25;;;;;;;10.15;8.88;;;6.40;99.90;;;;;;2122271;27;20015;-78
2020/12/05 02:29:26;;;;;;;9.95;8.95;;;6.40;99.90;;;;;;2122532;27;20038;-80
2020/12/05 02:30:32;;;;;;;12.40;8.95;;;6.40;99.90;;;;;;2122457;27;20034;-77
2020/12/05 02:31:33;;;;;;;11.95;9.55;;;6.40;99.90;;;;;;2121896;27;20116;-79
2020/12/05 02:32:33;;;;;;;12.23;9.05;;;6.50;99.90;;;;;;2122203;27;20370;-79
2020/12/05 02:33:34;;;;;;;10.32;9.32;;;6.50;99.90;;;;;;2122741;27;20027;-78
2020/12/05 02:34:35;;;;;;;10.63;9.10;;;6.50;99.90;;;;;;2113042;28;20051;-79
2020/12/05 02:35:36;;;;;;;11.20;10.02;;;6.50;99.90;;;;;;2105205;28;20024;-77
2020/12/05 02:36:38;;;;;;;12.50;9.65;;;6.50;99.90;;;;;;2113431;28;20026;-78
2020/12/05 02:37:41;;;;;;;10.43;9.43;;;6.50;99.90;;;;;;2113371;28;20173;-78
2020/12/05 02:38:57;;;;;;;10.45;9.18;;;6.60;99.90;;;;;;2113779;28;20020;-78
2020/12/05 02:39:59;;;;;;;10.38;8.65;;;6.60;99.90;;;;;;2122137;27;20031;-79
2020/12/05 02:41:00;;;;;;;9.98;8.70;;;6.60;99.90;;;;;;2122474;27;20023;-78
2020/12/05 02:42:01;;;;;;;9.95;8.95;;;6.60;99.90;;;;;;2112977;28;20480;-78
2020/12/05 02:43:02;;;;;;;10.38;9.35;;;6.60;99.90;;;;;;2113561;28;20036;-79
2020/12/05 02:44:02;;;;;;;10.07;9.02;;;6.60;99.90;;;;;;2122242;27;20030;-77
2020/12/05 02:45:09;;;;;;;11.20;9.35;;;6.60;99.90;;;;;;2122137;27;20062;-77
2020/12/05 02:46:09;;;;;;;9.60;8.57;;;6.70;99.90;;;;;;2122425;27;20031;-77
2020/12/05 02:47:10;;;;;;;10.27;8.95;;;6.70;99.90;;;;;;2122359;27;20585;-79
2020/12/05 02:48:11;;;;;;;10.20;9.13;;;6.70;99.90;;;;;;2113260;28;20036;-78
2020/12/05 02:49:11;;;;;;;11.50;10.40;;;6.70;99.90;;;;;;2113212;28;20030;-78
2020/12/05 02:50:12;;;;;;;10.95;9.10;;;6.70;99.90;;;;;;2122593;27;20396;-79
2020/12/05 02:51:13;;;;;;;11.55;10.02;;;6.70;99.90;;;;;;2122407;27;20094;-77
2020/12/05 02:52:14;;;;;;;11.48;10.27;;;6.80;99.90;;;;;;2112756;28;20055;-77
2020/12/05 02:53:14;;;;;;;11.60;9.90;;;6.80;99.90;;;;;;2113381;28;20107;-78
2020/12/05 02:54:15;;;;;;;11.38;9.35;;;6.80;99.90;;;;;;2122203;27;20023;-78
2020/12/05 02:55:16;;;;;;;10.70;9.60;;;6.80;99.90;;;;;;2122153;27;20024;-78
2020/12/05 02:56:17;;;;;;;12.68;10.15;;;6.80;99.90;;;;;;2122337;27;20023;-77
2020/12/05 02:57:17;;;;;;;10.52;9.52;;;6.80;99.90;;;;;;2113065;28;20019;-80
2020/12/05 02:58:18;;;;;;;11.23;9.20;;;6.80;99.90;;;;;;2104176;28;20028;-77
2020/12/05 02:59:18;;;;;;;12.32;10.50;;;6.80;99.90;;;;;;2113313;28;20050;-78
2020/12/05 03:00:19;;;;;;;10.77;9.68;;;6.80;99.90;;;;;;2122314;27;20512;-80
2020/12/05 03:01:20;;;;;;;10.50;9.48;;;6.90;99.90;;;;;;2123123;27;20030;-80
2020/12/05 03:02:20;;;;;;;12.13;10.02;;;6.90;99.90;;;;;;2122648;27;20474;-80
2020/12/05 03:03:21;;;;;;;11.82;9.82;;;6.90;99.90;;;;;;2122993;27;20035;-79
2020/12/05 03:04:21;;;;;;;11.05;9.85;;;6.90;99.90;;;;;;2123132;27;20103;-78
2020/12/05 03:05:22;;;;;;;10.73;9.20;;;6.90;99.90;;;;;;2123245;27;20019;-78
2020/12/05 03:06:22;;;;;;;12.07;9.75;;;6.90;99.90;;;;;;2123230;27;20374;-78
2020/12/05 03:07:23;;;;;;;10.65;9.65;;;6.90;99.90;;;;;;2123034;27;20177;-79
2020/12/05 03:08:24;;;;;;;10.95;9.80;;;6.90;99.90;;;;;;2113857;28;20024;-80
2020/12/05 03:09:24;;;;;;;12.27;10.40;;;6.90;99.90;;;;;;2105612;28;20094;-79
2020/12/05 03:10:25;;;;;;;10.55;9.45;;;6.90;99.90;;;;;;2113624;28;20529;-79
2020/12/05 03:11:25;;;;;;;10.68;9.48;;;7.00;99.90;;;;;;2122776;27;20502;-77
2020/12/05 03:12:26;;;;;;;10.88;9.77;;;7.00;99.90;;;;;;2122831;27;20058;-78
2020/12/05 03:13:27;;;;;;;10.95;9.30;;;7.00;99.90;;;;;;2123070;27;20020;-80
2020/12/05 03:14:27;;;;;;;12.60;10.27;;;7.00;99.90;;;;;;2122808;27;20023;-78
2020/12/05 03:15:28;;;;;;;12.63;10.55;;;7.00;99.90;;;;;;2123070;27;20050;-79
2020/12/05 03:16:28;;;;;;;10.77;9.60;;;7.00;99.90;;;;;;2113661;28;20031;-80
2020/12/05 03:17:29;;;;;;;11.73;10.25;;;7.00;99.90;;;;;;2113721;28;20059;-81
2020/12/05 03:18:30;;;;;;;10.88;9.88;;;7.00;99.90;;;;;;2122657;27;20019;-79
2020/12/05 03:19:30;;;;;;;10.98;9.82;;;7.00;99.90;;;;;;2123137;27;20027;-79
2020/12/05 03:20:31;;;;;;;11.25;9.80;;;7.10;99.90;;;;;;2122683;27;20030;-79
2020/12/05 03:21:31;;;;;;;11.23;10.13;;;7.10;99.90;;;;;;2122754;27;20027;-78
2020/12/05 03:22:32;;;;;;;11.27;10.18;;;7.10;99.90;;;;;;2122771;27;20023;-78
2020/12/05 03:23:32;;;;;;;11.23;10.00;;;7.10;99.90;;;;;;2122612;27;20030;-81
2020/12/05 03:24:33;;;;;;;11.20;9.60;;;7.10;99.90;;;;;;2122409;27;20031;-81
2020/12/05 03:25:33;;;;;;;11.25;9.90;;;7.10;99.90;;;;;;2122621;27;20027;-77
2020/12/05 03:26:34;;;;;;;11.15;10.00;;;7.10;99.90;;;;;;2122294;27;20035;-77
2020/12/05 03:27:34;;;;;;;13.18;10.30;;;7.10;99.90;;;;;;2122633;27;20023;-78
2020/12/05 03:28:36;;;;;;;11.05;9.85;;;7.10;99.90;;;;;;2122737;27;20019;-81
2020/12/05 03:29:39;;;;;;;11.05;9.95;;;7.10;99.90;;;;;;2122595;27;20022;-80
2020/12/05 03:30:39;;;;;;;11.70;10.25;;;7.10;99.90;;;;;;2122612;27;20015;-81
2020/12/05 03:31:53;;;;;;;11.80;10.57;;;7.10;99.90;;;;;;2122700;27;20015;-81
2020/12/05 03:32:55;;;;;;;13.02;11.30;;;7.10;99.90;;;;;;2122570;27;20035;-78
2020/12/05 03:33:55;;;;;;;12.13;10.85;;;7.10;99.90;;;;;;2122644;27;20064;-80
2020/12/05 03:34:56;;;;;;;11.90;10.63;;;7.10;99.90;;;;;;2122604;27;20019;-77
2020/12/05 03:35:57;;;;;;;11.80;10.60;;;7.10;99.90;;;;;;2113747;28;20379;-79
2020/12/05 03:36:57;;;;;;;11.95;10.70;;;7.10;99.90;;;;;;2113674;27;20019;-79
2020/12/05 03:37:58;;;;;;;10.88;9.75;;;7.20;99.90;;;;;;2113661;28;20026;-79
2020/12/05 03:38:59;;;;;;;11.27;9.75;;;7.20;99.90;;;;;;2105074;28;20155;-80
2020/12/05 03:39:59;;;;;;;12.10;10.02;;;7.10;99.90;;;;;;2113812;28;20032;-78
2020/12/05 03:41:00;;;;;;;11.90;10.45;;;7.20;99.90;;;;;;2122371;27;20027;-77
2020/12/05 03:42:00;;;;;;;12.73;10.73;;;7.20;99.90;;;;;;2113082;28;20132;-77
2020/12/05 03:43:01;;;;;;;11.10;9.90;;;7.20;99.90;;;;;;2113495;28;20437;-80
2020/12/05 03:44:02;;;;;;;11.98;10.38;;;7.20;99.90;;;;;;2122751;27;20026;-77
2020/12/05 03:45:03;;;;;;;12.20;9.75;;;7.20;99.90;;;;;;2122560;27;20437;-80
2020/12/05 03:46:03;;;;;;;11.45;10.27;;;7.20;99.90;;;;;;2122443;27;20030;-79
2020/12/05 03:47:05;;;;;;;11.80;10.38;;;7.20;99.90;;;;;;2122314;27;20024;-79
2020/12/05 03:48:06;;;;;;;12.30;10.32;;;7.20;99.90;;;;;;2122801;27;20375;-80
2020/12/05 03:49:06;;;;;;;11.45;10.35;;;7.20;99.90;;;;;;2122570;27;20011;-79
2020/12/05 03:50:07;;;;;;;12.27;10.30;;;7.20;99.90;;;;;;2122630;27;20015;-81
2020/12/05 03:51:08;;;;;;;11.40;10.02;;;7.20;99.90;;;;;;2122561;27;20015;-80
2020/12/05 03:52:08;;;;;;;12.35;11.00;;;7.20;99.90;;;;;;2113038;28;20100;-80
2020/12/05 03:53:09;;;;;;;12.80;10.20;;;7.30;99.90;;;;;;2113523;28;20415;-80
2020/12/05 03:54:09;;;;;;;11.93;10.15;;;7.30;99.90;;;;;;2122581;27;20072;-79
2020/12/05 03:55:11;;;;;;;13.85;10.25;;;7.30;99.90;;;;;;2122757;27;20086;-79
2020/12/05 03:56:14;;;;;;;11.70;10.18;;;7.30;99.90;;;;;;2122670;27;20050;-80
2020/12/05 03:57:15;;;;;;;12.40;10.68;;;7.30;99.90;;;;;;2122398;27;20015;-79
2020/12/05 03:58:15;;;;;;;11.65;10.32;;;7.30;99.90;;;;;;2122744;27;20071;-79
2020/12/05 03:59:16;;;;;;;11.75;9.88;;;7.30;99.90;;;;;;2113372;28;20015;-81
2020/12/05 04:00:17;;;;;;;12.20;10.60;;;7.30;99.90;;;;;;2113298;28;20092;-79
2020/12/05 04:01:18;;;;;;;14.23;10.00;;;7.30;99.90;;;;;;2122628;27;20046;-78
2020/12/05 04:02:18;;;;;;;12.38;10.30;;;7.30;99.90;;;;;;2121289;27;20512;-78
2020/12/05 04:03:19;;;;;;;12.63;11.02;;;7.30;99.90;;;;;;2121926;27;20035;-80
2020/12/05 04:04:19;;;;;;;11.60;10.43;;;7.30;99.90;;;;;;2121844;27;20102;-79
2020/12/05 04:05:20;;;;;;;13.65;10.65;;;7.30;99.90;;;;;;2121737;27;20055;-78
2020/12/05 04:06:20;;;;;;;13.10;10.55;;;7.30;99.90;;;;;;2121730;27;20163;-79
2020/12/05 04:07:21;;;;;;;13.65;10.45;;;7.30;99.90;;;;;;2122103;27;20047;-79
2020/12/05 04:08:21;;;;;;;14.07;10.70;;;7.30;99.90;;;;;;2112630;28;20093;-78
2020/12/05 04:09:22;;;;;;;13.05;10.95;;;7.30;99.90;;;;;;2112672;28;20016;-77
2020/12/05 04:10:22;;;;;;;12.52;10.10;;;7.30;99.90;;;;;;2121448;27;20486;-80
2020/12/05 04:11:23;;;;;;;11.23;10.07;;;7.30;99.90;;;;;;2120810;27;20386;-79
2020/12/05 04:12:24;;;;;;;10.55;9.45;;;7.30;99.90;;;;;;2121567;27;20483;-81
2020/12/05 04:13:25;;;;;;;11.23;9.70;;;7.30;99.90;;;;;;2121632;27;20019;-79
2020/12/05 04:14:25;;;;;;;12.05;9.95;;;7.30;99.90;;;;;;2121276;27;20012;-80
2020/12/05 04:15:26;;;;;;;12.07;10.38;;;7.30;99.90;;;;;;2121731;27;20520;-78
2020/12/05 04:16:26;;;;;;;12.40;10.57;;;7.30;99.90;;;;;;2121409;27;20051;-80
2020/12/05 04:17:27;;;;;;;12.60;11.27;;;7.30;99.90;;;;;;2121521;27;20031;-80
2020/12/05 04:18:27;;;;;;;12.00;10.80;;;7.30;99.90;;;;;;2121382;27;20058;-79
2020/12/05 04:19:28;;;;;;;13.63;10.48;;;7.30;99.90;;;;;;2121492;27;20057;-81
2020/12/05 04:20:29;;;;;;;14.52;11.10;;;7.30;99.90;;;;;;2121572;27;20019;-78
2020/12/05 04:21:29;;;;;;;12.65;11.35;;;7.30;99.90;;;;;;2111984;28;20279;-77
2020/12/05 04:22:30;;;;;;;13.52;12.13;;;7.30;99.90;;;;;;2112486;28;20050;-79
2020/12/05 04:23:30;;;;;;;13.20;11.65;;;7.30;99.90;;;;;;2122171;27;20046;-78
2020/12/05 04:24:31;;;;;;;16.60;12.23;;;7.30;99.90;;;;;;2121563;27;20031;-79
2020/12/05 04:25:31;;;;;;;13.30;11.73;;;7.20;99.90;;;;;;2121618;27;20106;-79
2020/12/05 04:26:32;;;;;;;14.50;11.85;;;7.20;99.90;;;;;;2121594;27;20491;-76
2020/12/05 04:27:32;;;;;;;12.63;11.32;;;7.30;99.90;;;;;;2121413;27;20058;-77
2020/12/05 04:28:33;;;;;;;14.10;12.35;;;7.20;99.90;;;;;;2121622;27;20019;-79
2020/12/05 04:29:33;;;;;;;14.38;11.98;;;7.20;99.90;;;;;;2121480;27;20030;-81
2020/12/05 04:30:34;;;;;;;14.32;12.30;;;7.30;99.90;;;;;;2121592;27;20024;-79
2020/12/05 04:31:34;;;;;;;14.38;12.88;;;7.20;99.90;;;;;;2121043;27;20023;-77
2020/12/05 04:32:35;;;;;;;15.25;13.52;;;7.30;99.90;;;;;;2121553;27;20026;-78
2020/12/05 04:33:36;;;;;;;15.18;12.63;;;7.20;99.90;;;;;;2121740;27;20019;-79
2020/12/05 04:34:36;;;;;;;16.40;13.50;;;7.20;99.90;;;;;;2121863;27;20119;-78
2020/12/05 04:35:37;;;;;;;17.85;14.52;;;7.20;99.90;;;;;;2121437;27;20057;-79
2020/12/05 04:36:37;;;;;;;17.58;13.90;;;7.20;99.90;;;;;;2121722;27;20378;-77
2020/12/05 04:37:38;;;;;;;18.67;14.82;;;7.20;99.90;;;;;;2121105;27;20068;-77
2020/12/05 04:38:39;;;;;;;16.27;14.35;;;7.20;99.90;;;;;;2121506;27;20019;-79
2020/12/05 04:39:40;;;;;;;16.95;13.98;;;7.20;99.90;;;;;;2121469;27;20031;-78
2020/12/05 04:40:40;;;;;;;16.65;14.18;;;7.20;99.90;;;;;;2121491;27;20031;-80
2020/12/05 04:41:42;;;;;;;17.92;15.20;;;7.20;99.90;;;;;;2120952;27;20492;-79
2020/12/05 04:42:47;;;;;;;16.08;14.48;;;7.20;99.90;;;;;;2121489;28;20050;-79
2020/12/05 04:43:48;;;;;;;17.48;14.98;;;7.20;99.90;;;;;;2112432;28;20054;-80
2020/12/05 04:44:48;;;;;;;16.55;13.75;;;7.20;99.90;;;;;;2112320;28;20055;-80
2020/12/05 04:45:50;;;;;;;15.25;13.57;;;7.20;99.90;;;;;;2112042;28;20023;-78
2020/12/05 04:46:52;;;;;;;16.83;14.82;;;7.20;99.90;;;;;;2121579;27;20034;-78
2020/12/05 04:47:54;;;;;;;17.95;14.82;;;7.20;99.90;;;;;;2112196;28;20312;-80
2020/12/05 04:48:57;;;;;;;17.83;15.57;;;7.20;99.90;;;;;;2112388;28;20452;-80
2020/12/05 04:49:59;;;;;;;16.92;14.93;;;7.20;99.90;;;;;;2121392;28;20023;-79
2020/12/05 04:51:03;;;;;;;17.33;15.50;;;7.20;99.90;;;;;;2121430;28;20027;-78
2020/12/05 04:52:24;;;;;;;19.85;16.00;;;7.20;99.90;;;;;;2121238;28;20234;-78
2020/12/05 04:53:25;;;;;;;18.40;15.60;;;7.20;99.90;;;;;;2121344;28;20063;-80
2020/12/05 04:54:27;;;;;;;18.92;16.50;;;7.20;99.90;;;;;;2121262;28;20030;-80
2020/12/05 04:55:30;;;;;;;17.48;15.15;;;7.20;99.90;;;;;;2121526;28;20023;-78
2020/12/05 04:56:39;;;;;;;19.85;16.98;;;7.20;99.90;;;;;;2121576;28;20030;-78
2020/12/05 04:57:58;;;;;;;19.15;16.90;;;7.20;99.90;;;;;;2121575;28;20025;-79
2020/12/05 04:59:03;;;;;;;19.35;15.80;;;7.20;99.90;;;;;;2120470;28;20116;-79
2020/12/05 05:00:05;;;;;;;18.13;16.17;;;7.20;99.90;;;;;;2120976;28;20552;-80
2020/12/05 05:01:06;;;;;;;20.73;15.82;;;7.20;99.90;;;;;;2112007;28;20038;-79
2020/12/05 05:02:10;;;;;;;19.33;16.75;;;7.20;99.90;;;;;;2111712;28;20042;-79
2020/12/05 05:03:14;;;;;;;21.67;17.92;;;7.20;99.90;;;;;;2121277;28;20015;-79
2020/12/05 05:04:14;;;;;;;21.40;17.08;;;7.20;99.90;;;;;;2121413;28;20030;-77
2020/12/05 05:05:15;;;;;;;19.55;16.85;;;7.20;99.90;;;;;;2121150;28;20055;-79
2020/12/05 05:06:19;;;;;;;19.67;16.63;;;7.20;99.90;;;;;;2111770;28;20130;-77
2020/12/05 05:07:20;;;;;;;17.92;15.13;;;7.20;99.90;;;;;;2112719;28;20020;-78
2020/12/05 05:08:25;;;;;;;20.25;16.90;;;7.20;99.90;;;;;;2121044;28;20023;-78
2020/12/05 05:09:26;;;;;;;18.35;16.13;;;7.20;99.90;;;;;;2111834;28;20027;-79
2020/12/05 05:10:29;;;;;;;17.25;14.73;;;7.20;99.90;;;;;;2112049;28;20048;-77
2020/12/05 05:11:30;;;;;;;17.25;14.88;;;7.20;99.90;;;;;;2112033;28;20069;-77
2020/12/05 05:12:32;;;;;;;20.13;17.42;;;7.20;99.90;;;;;;2121436;28;20470;-78
2020/12/05 05:13:48;;;;;;;18.58;16.58;;;7.20;99.90;;;;;;2121385;28;20068;-78
2020/12/05 05:14:49;;;;;;;19.95;15.80;;;7.20;99.90;;;;;;2121177;28;20076;-76
2020/12/05 05:15:50;;;;;;;21.67;17.92;;;7.20;99.90;;;;;;2121525;28;20474;-77
2020/12/05 05:16:50;;;;;;;18.20;15.63;;;7.20;99.90;;;;;;2121216;28;20031;-76
2020/12/05 05:17:51;;;;;;;22.80;18.73;;;7.20;99.90;;;;;;2121057;28;20493;-78
2020/12/05 05:18:51;;;;;;;22.25;18.98;;;7.20;99.90;;;;;;2120283;28;20383;-78
2020/12/05 05:19:52;;;;;;;22.13;17.30;;;7.20;99.90;;;;;;2121165;28;20020;-78